Time;durP1;ratioP1;P1;durP2;ratioP2;P2;SDS_P1;SDS_P2;PMS_P1;PMS_P2;Temp;Humidity;BMP_temperature;BMP_pressure;BME280_temperature;BME280_humidity;BME280_pressure;Samples;Min_cycle;Max_cycle;Signal;HPM_P1;HPM_P2
2022/06/25 00:00:33;;;;;;;3.10;1.98;;;18.20;99.90;;;;;;5037773;28;20547;-68
2022/06/25 00:02:58;;;;;;;5.18;2.60;;;18.20;99.90;;;;;;5036305;28;20033;-70
2022/06/25 00:05:32;;;;;;;2.97;1.70;;;18.10;99.90;;;;;;5022026;28;20033;-72
2022/06/25 00:07:58;;;;;;;2.72;1.77;;;18.20;99.90;;;;;;5021116;28;20060;-70
2022/06/25 00:10:24;;;;;;;5.47;2.00;;;18.20;99.90;;;;;;5037186;28;20049;-69
2022/06/25 00:12:50;;;;;;;4.20;2.38;;;18.10;99.90;;;;;;5049488;28;20512;-71
2022/06/25 00:15:16;;;;;;;3.83;2.05;;;18.10;99.90;;;;;;5050878;28;20036;-72
2022/06/25 00:17:42;;;;;;;3.72;2.38;;;18.10;99.90;;;;;;5051459;28;20029;-72
2022/06/25 00:20:09;;;;;;;3.42;1.67;;;18.10;99.90;;;;;;5045501;28;20033;-69
2022/06/25 00:22:35;;;;;;;4.53;1.92;;;18.10;99.90;;;;;;5040919;28;20378;-71
2022/06/25 00:25:00;;;;;;;4.28;1.80;;;18.10;99.90;;;;;;5040226;28;20028;-72
2022/06/25 00:27:26;;;;;;;2.45;1.65;;;18.10;99.90;;;;;;5042131;28;20029;-72
2022/06/25 00:29:51;;;;;;;4.80;2.80;;;18.00;99.90;;;;;;5040741;28;20025;-72
2022/06/25 00:32:17;;;;;;;3.80;1.80;;;18.10;99.90;;;;;;5043013;28;20028;-72
2022/06/25 00:34:43;;;;;;;10.43;2.13;;;18.10;99.90;;;;;;5038836;28;20030;-69
2022/06/25 00:37:09;;;;;;;5.03;1.95;;;18.10;99.90;;;;;;5024421;28;20051;-72
2022/06/25 00:39:36;;;;;;;6.05;2.10;;;18.00;99.90;;;;;;5040141;28;20037;-70
2022/06/25 00:42:11;;;;;;;4.05;1.98;;;17.90;99.90;;;;;;5041027;28;20030;-72
2022/06/25 00:44:37;;;;;;;6.18;2.28;;;17.90;99.90;;;;;;5039752;28;20041;-71
2022/06/25 00:47:06;;;;;;;3.70;1.77;;;17.90;99.90;;;;;;5040686;28;20460;-73
2022/06/25 00:49:32;;;;;;;4.45;1.95;;;17.90;99.90;;;;;;5040825;28;20044;-72
2022/06/25 00:52:00;;;;;;;8.73;1.77;;;17.90;99.90;;;;;;5039290;28;20033;-70
2022/06/25 00:54:32;;;;;;;3.85;2.30;;;17.90;99.90;;;;;;5040945;28;20067;-70
2022/06/25 00:57:00;;;;;;;3.40;1.92;;;17.90;99.90;;;;;;5039555;28;20034;-71
2022/06/25 00:59:28;;;;;;;3.28;1.65;;;17.90;99.90;;;;;;5022117;28;20147;-71
2022/06/25 01:01:54;;;;;;;5.20;2.00;;;17.90;99.90;;;;;;5038909;28;20029;-72
2022/06/25 01:04:20;;;;;;;4.88;2.28;;;17.90;99.90;;;;;;5042177;28;20092;-72
2022/06/25 01:06:45;;;;;;;4.82;1.88;;;17.90;99.90;;;;;;5038284;28;20453;-72
2022/06/25 01:09:11;;;;;;;4.75;2.10;;;17.90;99.90;;;;;;5042451;28;20040;-70
2022/06/25 01:11:37;;;;;;;3.47;1.80;;;17.80;99.90;;;;;;5039514;28;20041;-72
2022/06/25 01:14:07;;;;;;;4.60;1.75;;;17.80;99.90;;;;;;5040372;28;20112;-72
2022/06/25 01:16:33;;;;;;;6.75;2.20;;;17.80;99.90;;;;;;5039440;28;20037;-72
2022/06/25 01:19:03;;;;;;;3.22;2.25;;;17.80;99.90;;;;;;5026836;28;20039;-70
2022/06/25 01:21:29;;;;;;;7.70;2.42;;;17.80;99.90;;;;;;5030765;28;20037;-69
2022/06/25 01:23:55;;;;;;;4.15;1.70;;;17.70;99.90;;;;;;5046130;28;20052;-73
2022/06/25 01:26:20;;;;;;;5.07;2.17;;;17.70;99.90;;;;;;5047379;28;20032;-72
2022/06/25 01:28:46;;;;;;;3.78;1.75;;;17.70;99.90;;;;;;5021569;28;20090;-72
2022/06/25 01:31:11;;;;;;;3.63;1.80;;;17.80;99.90;;;;;;5034490;28;20068;-71
2022/06/25 01:33:37;;;;;;;4.43;1.67;;;17.70;99.90;;;;;;5040514;28;20074;-72
2022/06/25 01:36:03;;;;;;;2.88;1.95;;;17.70;99.90;;;;;;5039348;28;20036;-72
2022/06/25 01:38:29;;;;;;;3.75;1.90;;;17.70;99.90;;;;;;5022861;28;20048;-70
2022/06/25 01:40:54;;;;;;;6.13;2.15;;;17.70;99.90;;;;;;5036212;28;20045;-71
2022/06/25 01:43:21;;;;;;;3.35;1.85;;;17.70;99.90;;;;;;5017771;28;20044;-72
2022/06/25 01:45:46;;;;;;;4.10;2.25;;;17.70;99.90;;;;;;5037100;28;20787;-72
2022/06/25 01:48:12;;;;;;;6.50;2.05;;;17.70;99.90;;;;;;5041854;28;20049;-73
2022/06/25 01:50:38;;;;;;;6.15;2.17;;;17.60;99.90;;;;;;5020253;28;20025;-72
2022/06/25 01:53:04;;;;;;;4.10;1.95;;;17.60;99.90;;;;;;5040416;28;20400;-72
2022/06/25 01:55:30;;;;;;;5.50;2.10;;;17.60;99.90;;;;;;5023930;28;20043;-69
2022/06/25 01:57:55;;;;;;;7.13;2.20;;;17.60;99.90;;;;;;5038379;28;20405;-73
2022/06/25 02:00:24;;;;;;;9.18;2.58;;;17.60;99.90;;;;;;5042250;28;20033;-73
2022/06/25 02:02:50;;;;;;;3.22;1.88;;;17.50;99.90;;;;;;5019193;28;20559;-73
2022/06/25 02:05:17;;;;;;;4.10;2.28;;;17.50;99.90;;;;;;5046895;28;20034;-70
2022/06/25 02:07:44;;;;;;;7.40;2.30;;;17.50;99.90;;;;;;5049190;28;20085;-71
2022/06/25 02:10:10;;;;;;;5.68;2.40;;;17.40;99.90;;;;;;5027562;28;20091;-73
2022/06/25 02:12:36;;;;;;;3.90;2.13;;;17.40;99.90;;;;;;5049790;28;20043;-72
2022/06/25 02:15:02;;;;;;;4.45;1.83;;;17.30;99.90;;;;;;5039414;28;20107;-69
2022/06/25 02:17:28;;;;;;;3.38;1.83;;;17.40;99.90;;;;;;5039804;28;20026;-72
2022/06/25 02:19:54;;;;;;;4.57;1.88;;;17.30;99.90;;;;;;5020903;28;20453;-72
2022/06/25 02:22:19;;;;;;;5.43;2.10;;;17.30;99.90;;;;;;5038039;28;20072;-71
2022/06/25 02:24:45;;;;;;;5.85;2.45;;;17.30;99.90;;;;;;5021736;28;20089;-70
2022/06/25 02:27:11;;;;;;;6.55;2.35;;;17.30;99.90;;;;;;5023224;28;20029;-72
2022/06/25 02:29:37;;;;;;;10.35;2.28;;;17.30;99.90;;;;;;5023492;28;20045;-72
2022/06/25 02:32:04;;;;;;;4.32;2.08;;;17.20;99.90;;;;;;5037802;28;20514;-70
2022/06/25 02:34:30;;;;;;;8.65;2.05;;;17.20;99.90;;;;;;5039417;28;20493;-72
2022/06/25 02:36:56;;;;;;;4.00;2.10;;;17.20;99.90;;;;;;5020040;28;20108;-73
2022/06/25 02:39:22;;;;;;;3.33;2.28;;;17.20;99.90;;;;;;5038284;28;20116;-73
2022/06/25 02:41:47;;;;;;;5.57;2.30;;;17.20;99.90;;;;;;5033635;28;20033;-70
2022/06/25 02:44:13;;;;;;;5.65;2.30;;;17.20;99.90;;;;;;5038281;28;20029;-71
2022/06/25 02:46:38;;;;;;;4.68;1.80;;;17.20;99.90;;;;;;5037361;28;20060;-70
2022/06/25 02:49:04;;;;;;;4.82;2.53;;;17.20;99.90;;;;;;5022233;28;20401;-71
2022/06/25 02:51:29;;;;;;;3.78;2.10;;;17.20;99.90;;;;;;5020202;28;20041;-72
2022/06/25 02:53:55;;;;;;;5.50;2.22;;;17.20;99.90;;;;;;5042103;28;20047;-73
2022/06/25 02:59:06;;;;;;;5.22;1.90;;;17.20;99.90;;;;;;5037832;28;20130;-73
2022/06/25 03:01:32;;;;;;;7.43;2.30;;;17.20;99.90;;;;;;5040445;28;20055;-70
2022/06/25 03:03:58;;;;;;;5.75;2.00;;;17.20;99.90;;;;;;5037129;28;20091;-72
2022/06/25 03:06:23;;;;;;;5.88;2.00;;;17.20;99.90;;;;;;5021272;28;20037;-72
2022/06/25 03:08:50;;;;;;;3.88;1.92;;;17.20;99.90;;;;;;5037588;28;20820;-73
2022/06/25 03:11:16;;;;;;;4.43;1.83;;;17.20;99.90;;;;;;5019572;28;20033;-73
2022/06/25 03:13:42;;;;;;;5.28;1.50;;;17.10;99.90;;;;;;5038611;28;20025;-73
2022/06/25 03:16:08;;;;;;;6.80;2.25;;;17.20;99.90;;;;;;5036633;28;20030;-70
2022/06/25 03:18:35;;;;;;;4.18;2.08;;;17.20;99.90;;;;;;5040185;28;20025;-71
2022/06/25 03:21:00;;;;;;;6.03;1.70;;;17.10;99.90;;;;;;5036441;28;20049;-70
2022/06/25 03:23:27;;;;;;;6.55;2.03;;;17.10;99.90;;;;;;5020802;28;20041;-72
2022/06/25 03:25:53;;;;;;;5.70;2.17;;;17.00;99.90;;;;;;5021335;28;20030;-73
2022/06/25 03:28:19;;;;;;;3.97;1.95;;;17.10;99.90;;;;;;5039353;28;20036;-71
2022/06/25 03:30:45;;;;;;;4.70;2.20;;;17.00;99.90;;;;;;5018845;28;20034;-72
2022/06/25 03:33:12;;;;;;;4.50;1.70;;;17.00;99.90;;;;;;5039727;28;20044;-73
2022/06/25 03:35:37;;;;;;;4.28;1.75;;;17.00;99.90;;;;;;5018382;28;20025;-72
2022/06/25 03:38:03;;;;;;;3.95;1.80;;;17.00;99.90;;;;;;5039319;28;20029;-72
2022/06/25 03:40:29;;;;;;;3.85;1.50;;;17.00;99.90;;;;;;5019681;28;20131;-72
2022/06/25 03:42:55;;;;;;;4.75;2.15;;;17.00;99.90;;;;;;5019715;28;20489;-72
2022/06/25 03:45:20;;;;;;;8.27;1.73;;;17.00;99.90;;;;;;5038456;28;20028;-71
2022/06/25 03:47:50;;;;;;;4.50;1.63;;;17.00;99.90;;;;;;5039354;28;20120;-72
2022/06/25 03:50:19;;;;;;;5.45;1.65;;;17.00;99.90;;;;;;5042954;28;20074;-72
2022/06/25 03:52:47;;;;;;;4.45;2.05;;;17.00;99.90;;;;;;5038717;28;20087;-72
2022/06/25 03:55:13;;;;;;;3.20;1.70;;;17.10;99.90;;;;;;5022468;28;20075;-71
2022/06/25 03:57:39;;;;;;;4.82;1.25;;;17.10;99.90;;;;;;5029751;28;20025;-71
2022/06/25 04:00:06;;;;;;;2.95;1.40;;;17.20;99.90;;;;;;5046899;28;20102;-69
2022/06/25 04:02:32;;;;;;;5.28;2.05;;;17.20;99.90;;;;;;5054724;28;20091;-73
2022/06/25 04:04:58;;;;;;;2.95;1.65;;;17.30;99.90;;;;;;5044995;28;20037;-72
2022/06/25 04:07:24;;;;;;;2.00;1.17;;;17.30;99.90;;;;;;5042816;28;20033;-72
2022/06/25 04:09:49;;;;;;;2.85;1.70;;;17.40;99.90;;;;;;5040603;28;20071;-72
2022/06/25 04:12:15;;;;;;;3.45;1.50;;;17.50;99.90;;;;;;5040965;28;20026;-72
2022/06/25 04:14:41;;;;;;;4.13;1.77;;;17.50;99.90;;;;;;5041908;28;20052;-70
2022/06/25 04:17:06;;;;;;;4.43;1.40;;;17.50;99.90;;;;;;5039854;28;20034;-71
2022/06/25 04:19:39;;;;;;;2.00;1.02;;;17.50;99.90;;;;;;5030112;28;20033;-73
2022/06/25 04:22:07;;;;;;;3.03;1.17;;;17.50;99.90;;;;;;5043245;28;20029;-70
2022/06/25 04:24:34;;;;;;;2.58;1.05;;;17.50;99.90;;;;;;5039873;28;20029;-72
2022/06/25 04:26:59;;;;;;;2.17;1.55;;;17.50;99.90;;;;;;5049293;28;20120;-73
2022/06/25 04:29:25;;;;;;;3.35;1.40;;;17.60;99.90;;;;;;5048500;28;20064;-72
2022/06/25 04:31:50;;;;;;;4.45;1.10;;;17.60;99.90;;;;;;5041069;28;20545;-72
2022/06/25 04:34:16;;;;;;;3.25;1.20;;;17.70;99.90;;;;;;5040948;28;20782;-73
2022/06/25 04:36:41;;;;;;;4.15;1.20;;;17.80;99.90;;;;;;5044010;28;20378;-70
2022/06/25 04:39:07;;;;;;;2.35;0.98;;;17.80;99.90;;;;;;5036691;28;20406;-69
2022/06/25 04:41:32;;;;;;;6.18;1.30;;;17.90;99.90;;;;;;5025515;28;20033;-72
2022/06/25 04:44:01;;;;;;;2.10;1.10;;;18.10;99.90;;;;;;5020617;28;20040;-72
2022/06/25 04:46:27;;;;;;;5.70;0.95;;;18.10;99.90;;;;;;5042673;28;20496;-72
2022/06/25 04:48:53;;;;;;;4.35;1.05;;;18.30;99.90;;;;;;5039272;28;20040;-70
2022/06/25 04:51:18;;;;;;;2.13;1.10;;;18.30;99.90;;;;;;5041243;28;20040;-70
2022/06/25 04:53:56;;;;;;;1.52;0.82;;;18.30;99.90;;;;;;5024743;28;20546;-72
2022/06/25 04:56:23;;;;;;;3.30;1.08;;;18.40;99.90;;;;;;5041955;28;20048;-72
2022/06/25 04:58:49;;;;;;;1.95;1.02;;;18.40;99.90;;;;;;5038312;28;20036;-71
2022/06/25 05:01:15;;;;;;;3.00;0.80;;;18.50;99.90;;;;;;5040285;28;20531;-72
2022/06/25 05:03:40;;;;;;;2.70;1.00;;;18.50;99.90;;;;;;5039774;28;20464;-70
2022/06/25 05:06:06;;;;;;;4.95;0.80;;;18.50;99.90;;;;;;5039408;28;20116;-71
2022/06/25 05:08:33;;;;;;;1.75;1.10;;;18.50;99.90;;;;;;5042371;28;20049;-72
2022/06/25 05:10:59;;;;;;;2.45;0.90;;;18.50;99.90;;;;;;5033661;28;20586;-69
2022/06/25 05:13:24;;;;;;;3.42;1.17;;;18.50;99.90;;;;;;5041393;28;20037;-70
2022/06/25 05:15:52;;;;;;;3.00;1.00;;;18.50;99.90;;;;;;5038162;28;20037;-68
2022/06/25 05:18:18;;;;;;;1.80;1.10;;;18.50;99.90;;;;;;5040776;28;20029;-72
2022/06/25 05:20:44;;;;;;;5.35;1.38;;;18.40;99.90;;;;;;5041423;28;20087;-71
2022/06/25 05:23:10;;;;;;;1.38;0.98;;;18.40;99.90;;;;;;5040725;28;20057;-73
2022/06/25 05:25:36;;;;;;;9.55;1.30;;;18.30;99.90;;;;;;5040204;28;20045;-69
2022/06/25 05:28:03;;;;;;;5.93;1.00;;;18.40;99.90;;;;;;5042041;28;20045;-72
2022/06/25 05:30:28;;;;;;;8.38;1.33;;;18.40;99.90;;;;;;5034851;28;20087;-69
2022/06/25 05:32:54;;;;;;;2.45;1.17;;;18.40;99.90;;;;;;5040944;28;20416;-72
2022/06/25 05:35:20;;;;;;;4.82;1.52;;;18.50;99.90;;;;;;5022515;28;20063;-71
2022/06/25 05:37:46;;;;;;;1.60;0.85;;;18.60;99.90;;;;;;5039481;28;20033;-73
2022/06/25 05:40:11;;;;;;;3.25;0.93;;;18.70;99.90;;;;;;5022290;28;20112;-69
2022/06/25 05:42:37;;;;;;;3.88;1.08;;;18.80;99.90;;;;;;5020226;28;20029;-71
2022/06/25 05:45:03;;;;;;;2.65;0.98;;;18.90;99.90;;;;;;5040370;28;20059;-72
2022/06/25 05:47:29;;;;;;;2.20;0.70;;;19.00;99.90;;;;;;5037517;28;20037;-73
2022/06/25 05:49:55;;;;;;;3.70;1.10;;;19.10;99.90;;;;;;5040330;28;20029;-70
2022/06/25 05:52:20;;;;;;;4.03;0.98;;;19.20;99.90;;;;;;5020623;28;20029;-69
2022/06/25 05:54:46;;;;;;;1.73;0.80;;;19.40;99.90;;;;;;5038822;28;20048;-71
2022/06/25 05:57:11;;;;;;;4.57;1.15;;;19.40;99.90;;;;;;5039121;28;20108;-73
2022/06/25 05:59:37;;;;;;;2.85;0.95;;;19.60;99.90;;;;;;5039422;28;20414;-70
2022/06/25 06:02:03;;;;;;;3.65;1.00;;;19.70;99.90;;;;;;5023939;28;20025;-73
2022/06/25 06:04:29;;;;;;;3.40;1.00;;;19.80;99.90;;;;;;5038243;28;20091;-71
2022/06/25 06:06:54;;;;;;;3.67;1.00;;;19.90;99.90;;;;;;5041576;28;20030;-70
2022/06/25 06:09:20;;;;;;;3.67;0.80;;;20.10;99.90;;;;;;5038046;28;20053;-73
2022/06/25 06:11:45;;;;;;;4.03;1.48;;;20.20;99.90;;;;;;5020721;28;20029;-72
2022/06/25 06:14:11;;;;;;;2.17;1.20;;;20.40;99.90;;;;;;5020447;28;20508;-72
2022/06/25 06:16:36;;;;;;;3.47;0.88;;;20.70;99.90;;;;;;5037662;28;20486;-71
2022/06/25 06:19:02;;;;;;;3.45;1.08;;;21.10;99.90;;;;;;5039730;28;20120;-71
2022/06/25 06:21:29;;;;;;;2.97;1.27;;;21.40;99.90;;;;;;5027816;28;20041;-72
2022/06/25 06:23:54;;;;;;;3.28;0.88;;;21.50;99.90;;;;;;5029741;28;20041;-72
2022/06/25 06:26:20;;;;;;;6.65;1.23;;;21.50;99.90;;;;;;5034108;28;20035;-73
2022/06/25 06:28:45;;;;;;;2.80;1.45;;;21.60;99.90;;;;;;5033403;28;20108;-72
2022/06/25 06:31:11;;;;;;;1.95;0.88;;;21.70;99.90;;;;;;5036310;28;20087;-71
2022/06/25 06:33:37;;;;;;;6.03;1.20;;;21.80;99.90;;;;;;5030206;28;20045;-69
2022/06/25 06:36:03;;;;;;;2.03;1.10;;;21.80;99.90;;;;;;5032944;28;20116;-72
2022/06/25 06:38:29;;;;;;;4.03;1.33;;;21.90;99.90;;;;;;5036663;28;20033;-72
2022/06/25 06:40:54;;;;;;;2.97;1.00;;;21.90;99.90;;;;;;5034959;28;20029;-72
2022/06/25 06:43:20;;;;;;;3.00;0.73;;;22.00;99.90;;;;;;5018788;28;20116;-72
2022/06/25 06:45:45;;;;;;;4.82;1.00;;;22.10;99.90;;;;;;5035475;28;20213;-70
2022/06/25 06:48:11;;;;;;;2.85;1.08;;;22.50;99.90;;;;;;5039093;28;20115;-73
2022/06/25 06:50:37;;;;;;;4.80;1.30;;;23.10;99.90;;;;;;5038042;28;20560;-71
2022/06/25 06:53:02;;;;;;;2.72;0.85;;;23.40;99.90;;;;;;5017804;28;20087;-73
2022/06/25 06:55:28;;;;;;;4.50;0.93;;;23.40;99.90;;;;;;5044303;28;20056;-72
2022/06/25 06:57:53;;;;;;;6.32;1.40;;;23.30;99.90;;;;;;5038073;28;20402;-72
2022/06/25 07:00:19;;;;;;;2.40;1.08;;;23.30;99.90;;;;;;5021830;28;20025;-71
2022/06/25 07:02:45;;;;;;;3.67;1.17;;;23.10;99.90;;;;;;5038986;28;20021;-73
2022/06/25 07:05:10;;;;;;;3.70;1.20;;;23.00;99.90;;;;;;5020405;28;20108;-69
2022/06/25 07:07:36;;;;;;;4.07;1.33;;;22.70;99.90;;;;;;5037804;28;20039;-72
2022/06/25 07:10:02;;;;;;;1.90;0.93;;;22.50;99.90;;;;;;5019731;28;20037;-69
2022/06/25 07:12:28;;;;;;;3.50;1.02;;;22.40;99.90;;;;;;5035327;28;20117;-71
2022/06/25 07:14:53;;;;;;;3.47;1.20;;;22.30;99.90;;;;;;5038656;28;20144;-69
2022/06/25 07:17:19;;;;;;;4.50;1.08;;;22.30;99.90;;;;;;5013557;28;20505;-72
2022/06/25 07:19:45;;;;;;;5.38;1.27;;;22.10;99.90;;;;;;5036780;28;20521;-72
2022/06/25 07:22:10;;;;;;;6.57;1.27;;;22.20;99.90;;;;;;5038902;28;20040;-69
2022/06/25 07:24:36;;;;;;;3.40;1.23;;;22.30;99.90;;;;;;5040227;28;20079;-72
2022/06/25 07:27:01;;;;;;;1.38;0.80;;;22.20;99.90;;;;;;5041621;28;20036;-71
2022/06/25 07:29:27;;;;;;;2.47;1.00;;;22.10;99.90;;;;;;5042711;28;20045;-70
2022/06/25 07:31:53;;;;;;;3.25;1.20;;;22.00;99.90;;;;;;5038318;28;20030;-69
2022/06/25 07:34:18;;;;;;;7.50;1.52;;;21.90;99.90;;;;;;5041714;28;20036;-70
2022/06/25 07:36:44;;;;;;;5.32;1.15;;;21.70;99.90;;;;;;5039674;28;20028;-72
2022/06/25 07:39:10;;;;;;;6.35;1.30;;;21.50;99.90;;;;;;5023477;28;20050;-71
2022/06/25 07:41:35;;;;;;;2.03;1.00;;;21.50;99.90;;;;;;5041479;28;20029;-71
2022/06/25 07:44:02;;;;;;;4.43;1.27;;;21.90;99.90;;;;;;5039145;28;20114;-69
2022/06/25 07:46:27;;;;;;;5.82;1.13;;;22.70;99.90;;;;;;5043269;28;20086;-70
2022/06/25 07:48:53;;;;;;;11.65;1.63;;;23.50;99.90;;;;;;5039073;28;20120;-70
2022/06/25 07:54:03;;;;;;;1.98;1.00;;;23.80;99.90;;;;;;5032921;28;20048;-71
2022/06/25 07:56:29;;;;;;;2.40;1.15;;;23.90;99.90;;;;;;5018279;28;20037;-71
2022/06/25 07:58:54;;;;;;;4.60;0.88;;;23.80;99.90;;;;;;5034686;28;20370;-69
2022/06/25 08:01:20;;;;;;;3.22;1.30;;;23.60;99.90;;;;;;5018075;28;20102;-71
2022/06/25 08:03:45;;;;;;;2.53;1.23;;;23.30;99.90;;;;;;5016054;28;20034;-71
2022/06/25 08:06:12;;;;;;;2.00;1.00;;;23.10;99.90;;;;;;5034954;28;20535;-70
2022/06/25 08:08:39;;;;;;;3.22;1.52;;;22.80;99.90;;;;;;5034656;28;20044;-70
2022/06/25 08:11:05;;;;;;;2.85;1.33;;;22.50;99.90;;;;;;5014118;28;20045;-71
2022/06/25 08:13:31;;;;;;;6.28;1.20;;;22.30;99.90;;;;;;5040150;28;20041;-71
2022/06/25 08:15:57;;;;;;;7.07;1.60;;;22.00;99.90;;;;;;5041576;28;20110;-69
2022/06/25 08:18:22;;;;;;;3.70;1.42;;;21.80;99.90;;;;;;5039584;28;20060;-71
2022/06/25 08:20:49;;;;;;;6.80;1.58;;;21.50;99.90;;;;;;5037606;28;20048;-71
2022/06/25 08:23:16;;;;;;;5.35;1.30;;;21.40;99.90;;;;;;5042033;28;20044;-69
2022/06/25 08:25:41;;;;;;;6.72;1.65;;;21.20;99.90;;;;;;5026735;28;20041;-70
2022/06/25 08:28:07;;;;;;;8.80;2.13;;;21.00;99.90;;;;;;5018315;28;20048;-73
2022/06/25 08:30:33;;;;;;;5.28;1.50;;;20.90;99.90;;;;;;5039256;28;20041;-68
2022/06/25 08:32:59;;;;;;;5.93;2.22;;;20.90;99.90;;;;;;5037948;28;20030;-70
2022/06/25 08:35:25;;;;;;;6.97;2.00;;;20.90;99.90;;;;;;5024665;28;20044;-69
2022/06/25 08:37:50;;;;;;;5.05;1.67;;;20.90;99.90;;;;;;5020653;28;20033;-70
2022/06/25 08:40:18;;;;;;;4.47;1.70;;;20.80;99.90;;;;;;5042843;28;20057;-70
2022/06/25 08:42:44;;;;;;;5.18;2.00;;;20.80;99.90;;;;;;5037976;28;20026;-70
2022/06/25 08:45:10;;;;;;;6.88;1.77;;;20.90;99.90;;;;;;5023331;28;20040;-70
2022/06/25 08:47:57;;;;;;;6.80;2.30;;;20.90;99.90;;;;;;5022812;28;20037;-72
2022/06/25 08:50:23;;;;;;;5.57;1.52;;;21.00;99.90;;;;;;5017206;28;20080;-68
2022/06/25 08:52:54;;;;;;;6.25;1.70;;;21.10;99.90;;;;;;5022366;28;20033;-72
2022/06/25 08:55:20;;;;;;;5.90;1.92;;;21.10;99.90;;;;;;5017145;28;20041;-73
2022/06/25 08:57:46;;;;;;;6.00;1.77;;;21.10;99.90;;;;;;5031567;28;20543;-71
2022/06/25 09:00:12;;;;;;;7.72;1.77;;;21.10;99.90;;;;;;5032841;28;20370;-69
2022/06/25 09:02:39;;;;;;;10.82;1.85;;;21.20;99.90;;;;;;5022415;28;20025;-72
2022/06/25 09:05:07;;;;;;;7.30;2.42;;;21.20;99.90;;;;;;5037617;28;20123;-71
2022/06/25 09:07:32;;;;;;;4.97;1.65;;;21.20;99.90;;;;;;5038510;28;20039;-72
2022/06/25 09:09:58;;;;;;;7.05;1.75;;;21.40;99.90;;;;;;5039489;28;20029;-69
2022/06/25 09:12:24;;;;;;;4.53;1.70;;;21.80;99.90;;;;;;5020862;28;20517;-71
2022/06/25 09:14:50;;;;;;;6.03;1.85;;;22.10;99.90;;;;;;5039470;28;20029;-71
2022/06/25 09:17:16;;;;;;;7.43;1.95;;;22.40;99.90;;;;;;5020038;28;20036;-71
2022/06/25 09:19:52;;;;;;;5.28;1.80;;;22.70;99.90;;;;;;5038659;28;20037;-70
2022/06/25 09:22:20;;;;;;;4.30;1.60;;;23.00;99.90;;;;;;5040357;28;20052;-72
2022/06/25 09:24:47;;;;;;;7.30;2.55;;;23.00;99.90;;;;;;5021474;28;20033;-71
2022/06/25 09:27:20;;;;;;;5.20;1.88;;;23.10;99.90;;;;;;5024298;28;20037;-69
2022/06/25 09:29:50;;;;;;;5.50;2.00;;;23.00;99.90;;;;;;5032114;28;20029;-70
2022/06/25 09:32:17;;;;;;;6.40;1.95;;;22.90;99.90;;;;;;5034351;28;20044;-71
2022/06/25 09:34:43;;;;;;;5.57;2.08;;;22.80;99.90;;;;;;5033611;28;20525;-72
2022/06/25 09:37:17;;;;;;;5.43;2.00;;;22.70;99.90;;;;;;5040687;28;20041;-72
2022/06/25 09:39:44;;;;;;;3.92;2.05;;;22.70;99.90;;;;;;5035072;28;20100;-70
2022/06/25 09:42:39;;;;;;;6.05;2.17;;;22.60;99.90;;;;;;5021754;28;20657;-72
2022/06/25 09:45:11;;;;;;;5.82;1.88;;;22.70;99.90;;;;;;5015305;28;20397;-72
2022/06/25 09:47:45;;;;;;;5.57;2.13;;;23.20;99.90;;;;;;5022199;28;20076;-73
2022/06/25 09:50:18;;;;;;;3.10;1.48;;;23.60;99.90;;;;;;5036142;28;20037;-70
2022/06/25 09:52:55;;;;;;;5.05;1.80;;;23.90;99.90;;;;;;5030728;28;20505;-71
2022/06/25 09:55:23;;;;;;;4.82;1.85;;;24.30;99.90;;;;;;5035245;28;20505;-73
2022/06/25 09:57:50;;;;;;;7.88;2.58;;;24.40;99.90;;;;;;5036862;28;20033;-71
2022/06/25 10:00:17;;;;;;;4.25;2.13;;;24.60;99.90;;;;;;5034373;28;20041;-69
2022/06/25 10:02:45;;;;;;;4.35;1.85;;;24.60;99.90;;;;;;5039249;28;20029;-69
2022/06/25 10:05:11;;;;;;;2.50;1.70;;;24.50;99.90;;;;;;5037475;28;20033;-71
2022/06/25 10:10:22;;;;;;;3.95;1.77;;;24.30;99.90;;;;;;5033681;28;20091;-69
2022/06/25 10:12:50;;;;;;;3.00;1.88;;;24.30;99.90;;;;;;5035944;28;20034;-71
2022/06/25 10:15:18;;;;;;;5.03;1.88;;;24.40;99.90;;;;;;5040821;28;20033;-69
2022/06/25 10:17:48;;;;;;;4.07;1.95;;;24.00;99.90;;;;;;5014279;28;20029;-69
2022/06/25 10:20:15;;;;;;;6.30;2.13;;;23.70;99.90;;;;;;5033503;28;20025;-70
2022/06/25 10:22:43;;;;;;;2.75;1.60;;;23.60;99.90;;;;;;5014719;28;20489;-70
2022/06/25 10:25:15;;;;;;;4.13;2.00;;;23.40;99.90;;;;;;5040990;28;20033;-72
2022/06/25 10:27:42;;;;;;;5.88;2.40;;;23.10;99.90;;;;;;5040285;28;20048;-71
2022/06/25 10:30:09;;;;;;;5.47;1.90;;;22.80;99.90;;;;;;5028330;28;20898;-69
2022/06/25 10:32:46;;;;;;;6.10;2.03;;;22.60;99.90;;;;;;5021594;28;20048;-72
2022/06/25 10:35:44;;;;;;;3.47;1.35;;;22.30;99.90;;;;;;5047470;28;20036;-69
2022/06/25 10:38:19;;;;;;;5.45;2.08;;;21.90;99.90;;;;;;5003584;28;20037;-72
2022/06/25 10:43:56;;;;;;;4.85;1.95;;;21.40;99.90;;;;;;5026485;28;20133;-72
2022/06/25 10:46:31;;;;;;;4.95;1.83;;;21.40;99.90;;;;;;5019705;28;20032;-71
2022/06/25 10:49:08;;;;;;;4.60;1.58;;;21.40;99.90;;;;;;5019783;28;20051;-70
2022/06/25 10:51:42;;;;;;;3.88;1.52;;;21.50;99.90;;;;;;5037455;28;20055;-71
2022/06/25 10:54:36;;;;;;;4.60;1.73;;;21.50;99.90;;;;;;5020656;28;20120;-69
2022/06/25 10:57:02;;;;;;;6.45;1.88;;;21.60;99.90;;;;;;5034364;28;23015;-69
2022/06/25 10:59:39;;;;;;;5.13;1.70;;;21.80;99.90;;;;;;5036969;28;20048;-67
2022/06/25 11:02:07;;;;;;;7.30;2.10;;;22.20;99.90;;;;;;5038439;28;20037;-69
2022/06/25 11:04:33;;;;;;;7.03;2.05;;;22.50;99.90;;;;;;5036983;28;20259;-67
2022/06/25 11:07:08;;;;;;;6.68;2.28;;;22.70;99.90;;;;;;5019963;28;20033;-68
2022/06/25 11:09:34;;;;;;;5.45;1.52;;;23.10;99.90;;;;;;5019417;28;20047;-68
2022/06/25 11:12:00;;;;;;;5.78;2.10;;;23.40;99.90;;;;;;5037441;28;20026;-68
2022/06/25 11:14:25;;;;;;;3.03;1.88;;;23.70;99.90;;;;;;5036694;28;20523;-71
2022/06/25 11:16:53;;;;;;;6.18;2.33;;;23.80;99.90;;;;;;5036474;28;20033;-68
2022/06/25 11:19:20;;;;;;;4.88;1.70;;;23.90;99.90;;;;;;5021269;28;20044;-68
2022/06/25 11:21:47;;;;;;;3.78;1.83;;;23.90;99.90;;;;;;5036001;28;20033;-71
2022/06/25 11:24:22;;;;;;;4.57;1.75;;;23.80;99.90;;;;;;5017295;28;20042;-69
2022/06/25 11:29:47;;;;;;;5.57;1.70;;;23.50;99.90;;;;;;5032602;28;20521;-71
2022/06/25 11:32:20;;;;;;;2.63;1.75;;;23.40;99.90;;;;;;5029937;28;20493;-69
2022/06/25 11:35:00;;;;;;;3.15;2.20;;;23.30;99.90;;;;;;5018135;28;20111;-70
2022/06/25 11:37:27;;;;;;;4.75;2.20;;;23.10;99.90;;;;;;5020032;28;20044;-71
2022/06/25 11:39:53;;;;;;;6.20;2.72;;;23.00;99.90;;;;;;5036957;28;20060;-70
2022/06/25 11:42:19;;;;;;;6.00;2.10;;;23.00;99.90;;;;;;5021250;28;20052;-71
2022/06/25 11:44:47;;;;;;;3.42;2.22;;;23.10;99.90;;;;;;5017854;28;20693;-68
2022/06/25 11:47:24;;;;;;;3.20;1.55;;;23.60;99.90;;;;;;5021438;28;20037;-70
2022/06/25 11:49:50;;;;;;;6.10;2.10;;;23.90;99.90;;;;;;5037234;28;20029;-70
2022/06/25 11:52:18;;;;;;;5.88;2.45;;;24.30;99.90;;;;;;5019684;28;20082;-70
2022/06/25 11:54:46;;;;;;;4.80;2.35;;;24.50;99.90;;;;;;5035665;28;20163;-69
2022/06/25 11:57:23;;;;;;;3.60;1.77;;;24.50;99.90;;;;;;5039867;28;20469;-71
2022/06/25 11:59:50;;;;;;;3.30;1.60;;;24.70;99.90;;;;;;5037165;28;20504;-70
2022/06/25 12:02:16;;;;;;;3.05;1.52;;;24.90;99.90;;;;;;5039524;28;20119;-71
2022/06/25 12:04:52;;;;;;;1.77;1.45;;;25.00;99.90;;;;;;5019150;28;20029;-71
2022/06/25 12:07:25;;;;;;;3.13;1.90;;;25.00;99.90;;;;;;5036629;28;20030;-72
2022/06/25 12:09:54;;;;;;;2.40;1.40;;;24.80;99.90;;;;;;5040741;28;20049;-70
2022/06/25 12:12:21;;;;;;;3.13;1.77;;;24.70;99.90;;;;;;5041081;28;20037;-70
2022/06/25 12:14:48;;;;;;;7.55;2.50;;;24.60;99.90;;;;;;5040700;28;20033;-70
2022/06/25 12:17:15;;;;;;;3.60;1.73;;;24.70;99.90;;;;;;5040296;28;20051;-70
2022/06/25 12:19:49;;;;;;;2.85;1.70;;;24.60;99.90;;;;;;5042952;28;20052;-72
2022/06/25 12:22:26;;;;;;;3.40;1.17;;;24.40;99.90;;;;;;5037265;28;20498;-70
2022/06/25 12:24:55;;;;;;;6.10;2.05;;;24.30;99.90;;;;;;5041897;28;20033;-71
2022/06/25 12:27:20;;;;;;;3.47;1.77;;;24.50;99.90;;;;;;5042785;28;20529;-72
2022/06/25 12:29:52;;;;;;;2.72;1.65;;;24.60;99.90;;;;;;5022993;28;20120;-71
2022/06/25 12:32:18;;;;;;;6.90;1.60;;;24.60;99.90;;;;;;5022813;28;20029;-71
2022/06/25 12:34:48;;;;;;;3.10;1.65;;;24.50;99.90;;;;;;5041077;28;20133;-69
2022/06/25 12:37:33;;;;;;;1.77;1.23;;;24.50;99.90;;;;;;5022392;28;20460;-70
2022/06/25 12:39:59;;;;;;;2.42;1.30;;;24.50;99.90;;;;;;5039326;28;20095;-73
2022/06/25 12:42:28;;;;;;;3.38;1.40;;;24.60;99.90;;;;;;5041287;28;20099;-70
2022/06/25 12:44:54;;;;;;;2.25;1.35;;;24.60;99.90;;;;;;5021668;28;20078;-69
2022/06/25 12:47:20;;;;;;;2.55;1.30;;;24.50;99.90;;;;;;5041020;28;20029;-71
2022/06/25 12:49:56;;;;;;;6.03;1.58;;;24.50;99.90;;;;;;5040601;28;20033;-70
2022/06/25 12:52:26;;;;;;;4.93;1.23;;;24.80;99.90;;;;;;5022973;28;20033;-71
2022/06/25 12:54:54;;;;;;;3.72;0.90;;;24.90;99.90;;;;;;5021747;28;20025;-72
2022/06/25 12:57:28;;;;;;;2.72;0.90;;;24.90;99.90;;;;;;5023062;28;20040;-72
2022/06/25 12:59:55;;;;;;;1.80;1.30;;;24.90;99.90;;;;;;5021406;28;20040;-70